ABW102 EIDW-ULLI
Flight info
| Callsign | ABW102 |
|---|---|
| Flight time | 2h 45m |
| Altitude | 41000 |
| Route | ROTEV2A ROTEV DCT GOTNA DCT TRN DCT ALOTI DCT VATEX DCT RIKUM DCT RIRIP Y364 LAKUT DCT OLEMA/K0885F410 L24 AKARU AKARU1B |
| Aircraft | B77L/H-SABDE1E2E3FGHIJ1J2J3J4J5M1P2RWXYZ/LB1D1 |
Departure
| Time | 2026-02-21 23:10 |
|---|---|
| Airport | Dublin Airport (EIDW) |
Arrival
| Time | 2026-02-22 01:55 |
|---|---|
| Airport | Pulkovo Airport (ULLI) |
| Time | Latitude | Longitude | Altitude | Speed | Heading |
|---|---|---|---|---|---|
| 2026-02-21 22:55 | 53.42593 | -6.26159 | 221 ft | 0 kts | 5° |
| 2026-02-21 23:03 | 53.42591 | -6.26159 | 215 ft | 1 kts | 5° |
| 2026-02-21 23:03 | 53.42574 | -6.26162 | 219 ft | 3 kts | 5° |
| 2026-02-21 23:04 | 53.42554 | -6.26165 | 215 ft | 3 kts | 5° |
| 2026-02-21 23:04 | 53.42538 | -6.26168 | 215 ft | 2 kts | 6° |
| 2026-02-21 23:04 | 53.42521 | -6.26174 | 222 ft | 3 kts | 38° |
| 2026-02-21 23:04 | 53.42512 | -6.26194 | 223 ft | 3 kts | 91° |
| 2026-02-21 23:05 | 53.42513 | -6.26213 | 220 ft | 2 kts | 98° |
| 2026-02-21 23:06 | 53.42509 | -6.26149 | 217 ft | 23 kts | 95° |
| 2026-02-21 23:06 | 53.42480 | -6.25857 | 223 ft | 24 kts | 93° |
| 2026-02-21 23:07 | 53.42573 | -6.25632 | 221 ft | 16 kts | 46° |
| 2026-02-21 23:07 | 53.42588 | -6.25607 | 221 ft | 0 kts | 45° |
| 2026-02-21 23:08 | 53.42619 | -6.25552 | 224 ft | 22 kts | 51° |
| 2026-02-21 23:08 | 53.42554 | -6.25369 | 221 ft | 22 kts | 156° |
| 2026-02-21 23:08 | 53.42414 | -6.25267 | 220 ft | 22 kts | 156° |
| 2026-02-21 23:09 | 53.42273 | -6.25163 | 219 ft | 22 kts | 156° |
| 2026-02-21 23:09 | 53.42128 | -6.25056 | 220 ft | 23 kts | 156° |
| 2026-02-21 23:09 | 53.42034 | -6.25121 | 223 ft | 17 kts | 260° |
| 2026-02-21 23:09 | 53.42073 | -6.25931 | 220 ft | 144 kts | 275° |
| 2026-02-21 23:10 | 53.42228 | -6.28054 | 1130 ft | 187 kts | 275° |
| 2026-02-21 23:10 | 53.42424 | -6.30047 | 3525 ft | 171 kts | 275° |
| 2026-02-21 23:10 | 53.42590 | -6.32142 | 5221 ft | 199 kts | 271° |
| 2026-02-21 23:10 | 53.42668 | -6.34640 | 6201 ft | 224 kts | 270° |
| 2026-02-21 23:11 | 53.42730 | -6.36380 | 7163 ft | 229 kts | 270° |
| 2026-02-21 23:11 | 53.42847 | -6.39106 | 8173 ft | 237 kts | 270° |
| 2026-02-21 23:11 | 53.42984 | -6.41851 | 8785 ft | 241 kts | 270° |
| 2026-02-21 23:12 | 53.43252 | -6.44637 | 8900 ft | 250 kts | 285° |
| 2026-02-21 23:12 | 53.44217 | -6.47157 | 9774 ft | 266 kts | 303° |
| 2026-02-21 23:12 | 53.45656 | -6.49282 | 11046 ft | 292 kts | 317° |
| 2026-02-21 23:12 | 53.47662 | -6.50799 | 11675 ft | 346 kts | 338° |
| 2026-02-21 23:13 | 53.50233 | -6.50920 | 12486 ft | 389 kts | 1° |
| 2026-02-21 23:13 | 53.52919 | -6.49733 | 13832 ft | 409 kts | 15° |
| 2026-02-21 23:13 | 53.55542 | -6.47693 | 15095 ft | 421 kts | 21° |
| 2026-02-21 23:13 | 53.58150 | -6.45309 | 16332 ft | 432 kts | 24° |
| 2026-02-21 23:14 | 53.60815 | -6.42799 | 17502 ft | 443 kts | 23° |
| 2026-02-21 23:14 | 53.63549 | -6.40277 | 18595 ft | 452 kts | 22° |
| 2026-02-21 23:14 | 53.66354 | -6.37773 | 19642 ft | 459 kts | 21° |
| 2026-02-21 23:14 | 53.69215 | -6.35290 | 20741 ft | 465 kts | 20° |
| 2026-02-21 23:15 | 53.72088 | -6.32841 | 21802 ft | 471 kts | 20° |
| 2026-02-21 23:15 | 53.75049 | -6.30342 | 22724 ft | 481 kts | 19° |
| 2026-02-21 23:15 | 53.78054 | -6.27808 | 22954 ft | 484 kts | 19° |
| 2026-02-21 23:15 | 53.81070 | -6.25255 | 22898 ft | 482 kts | 20° |
| 2026-02-21 23:16 | 53.83054 | -6.23568 | 22907 ft | 481 kts | 20° |
| 2026-02-21 23:16 | 53.86058 | -6.21014 | 23341 ft | 486 kts | 20° |
| 2026-02-21 23:16 | 53.89106 | -6.18421 | 24212 ft | 493 kts | 19° |
| 2026-02-21 23:17 | 53.92187 | -6.15794 | 25125 ft | 498 kts | 19° |
| 2026-02-21 23:17 | 53.95301 | -6.13132 | 26004 ft | 504 kts | 19° |
| 2026-02-21 23:17 | 53.98463 | -6.10425 | 26798 ft | 511 kts | 19° |
| 2026-02-21 23:17 | 54.01652 | -6.07692 | 27544 ft | 519 kts | 19° |
| 2026-02-21 23:18 | 54.04898 | -6.04928 | 28322 ft | 525 kts | 18° |
| 2026-02-21 23:18 | 54.08170 | -6.02230 | 29095 ft | 531 kts | 17° |
| 2026-02-21 23:18 | 54.11523 | -5.99511 | 29869 ft | 537 kts | 17° |
| 2026-02-21 23:18 | 54.14927 | -5.96765 | 30420 ft | 545 kts | 17° |
| 2026-02-21 23:19 | 54.18367 | -5.93976 | 30969 ft | 548 kts | 17° |
| 2026-02-21 23:19 | 54.21819 | -5.91156 | 31527 ft | 551 kts | 17° |
| 2026-02-21 23:19 | 54.25275 | -5.88307 | 32169 ft | 552 kts | 17° |
| 2026-02-21 23:19 | 54.28739 | -5.85436 | 32923 ft | 551 kts | 16° |
| 2026-02-21 23:20 | 54.32179 | -5.82577 | 33744 ft | 547 kts | 16° |
| 2026-02-21 23:20 | 54.35607 | -5.79728 | 34477 ft | 544 kts | 16° |
| 2026-02-21 23:20 | 54.39005 | -5.76906 | 35207 ft | 541 kts | 17° |
| 2026-02-21 23:20 | 54.42346 | -5.74130 | 35870 ft | 539 kts | 17° |
| 2026-02-21 23:21 | 54.44019 | -5.72739 | 36220 ft | 537 kts | 17° |
| 2026-02-21 23:21 | 54.47386 | -5.69935 | 36934 ft | 534 kts | 18° |
| 2026-02-21 23:21 | 54.50714 | -5.67157 | 37644 ft | 530 kts | 18° |
| 2026-02-21 23:22 | 54.54022 | -5.64392 | 38364 ft | 527 kts | 18° |
| 2026-02-21 23:22 | 54.57310 | -5.61638 | 38959 ft | 524 kts | 19° |
| 2026-02-21 23:22 | 54.60548 | -5.58735 | 39455 ft | 526 kts | 23° |
| 2026-02-21 23:22 | 54.63670 | -5.55429 | 39967 ft | 528 kts | 26° |
| 2026-02-21 23:23 | 54.66726 | -5.52014 | 40401 ft | 528 kts | 27° |
| 2026-02-21 23:23 | 54.69792 | -5.48515 | 40833 ft | 528 kts | 27° |
| 2026-02-21 23:23 | 54.75968 | -5.41469 | 40896 ft | 533 kts | 27° |
| 2026-02-21 23:24 | 54.82142 | -5.34489 | 40874 ft | 525 kts | 26° |
| 2026-02-21 23:24 | 54.88264 | -5.27598 | 40881 ft | 523 kts | 26° |
| 2026-02-21 23:25 | 54.94376 | -5.20702 | 40876 ft | 524 kts | 27° |
| 2026-02-21 23:25 | 55.00438 | -5.13827 | 40877 ft | 524 kts | 27° |
| 2026-02-21 23:26 | 55.02415 | -5.11579 | 40873 ft | 524 kts | 27° |
| 2026-02-21 23:26 | 55.08522 | -5.04612 | 40874 ft | 524 kts | 27° |
| 2026-02-21 23:27 | 55.14555 | -4.97705 | 40895 ft | 524 kts | 27° |
| 2026-02-21 23:27 | 55.20664 | -4.90687 | 40882 ft | 525 kts | 27° |
| 2026-02-21 23:28 | 55.26716 | -4.83665 | 40874 ft | 526 kts | 30° |
| 2026-02-21 23:28 | 55.32197 | -4.74982 | 40869 ft | 536 kts | 43° |
| 2026-02-21 23:29 | 55.36648 | -4.64378 | 40859 ft | 540 kts | 54° |
| 2026-02-21 23:29 | 55.40639 | -4.53141 | 40857 ft | 540 kts | 55° |
| 2026-02-21 23:30 | 55.44569 | -4.41973 | 40873 ft | 539 kts | 54° |
| 2026-02-21 23:30 | 55.48563 | -4.30782 | 40862 ft | 537 kts | 54° |
| 2026-02-21 23:31 | 55.49757 | -4.27456 | 40860 ft | 537 kts | 54° |
| 2026-02-21 23:31 | 55.53742 | -4.16356 | 40846 ft | 535 kts | 54° |
| 2026-02-21 23:32 | 55.57711 | -4.05250 | 40845 ft | 533 kts | 54° |
| 2026-02-21 23:32 | 55.61593 | -3.94324 | 40844 ft | 533 kts | 54° |
| 2026-02-21 23:33 | 55.65521 | -3.83211 | 40847 ft | 532 kts | 54° |
| 2026-02-21 23:33 | 55.69438 | -3.72075 | 40831 ft | 531 kts | 54° |
| 2026-02-21 23:34 | 55.73340 | -3.60937 | 40845 ft | 531 kts | 54° |
| 2026-02-21 23:34 | 55.77207 | -3.49846 | 40812 ft | 532 kts | 54° |
| 2026-02-21 23:35 | 55.81097 | -3.38637 | 40804 ft | 532 kts | 55° |
| 2026-02-21 23:35 | 55.84966 | -3.27436 | 40808 ft | 532 kts | 54° |
| 2026-02-21 23:36 | 55.85968 | -3.24526 | 40809 ft | 532 kts | 54° |
| 2026-02-21 23:36 | 55.89833 | -3.13270 | 40808 ft | 532 kts | 55° |
| 2026-02-21 23:37 | 55.93658 | -3.02082 | 40802 ft | 532 kts | 55° |
| 2026-02-21 23:37 | 55.97458 | -2.90914 | 40796 ft | 532 kts | 55° |
| 2026-02-21 23:38 | 56.01289 | -2.79604 | 40795 ft | 532 kts | 55° |
| 2026-02-21 23:38 | 56.05113 | -2.68261 | 40794 ft | 533 kts | 55° |
| 2026-02-21 23:39 | 56.08930 | -2.56885 | 40783 ft | 533 kts | 55° |
| 2026-02-21 23:39 | 56.12742 | -2.45469 | 40787 ft | 533 kts | 55° |
| 2026-02-21 23:40 | 56.16520 | -2.34101 | 40790 ft | 534 kts | 55° |
| 2026-02-21 23:40 | 56.19698 | -2.24497 | 40804 ft | 534 kts | 55° |
| 2026-02-21 23:41 | 56.21559 | -2.18857 | 40803 ft | 535 kts | 55° |
| 2026-02-21 23:41 | 56.25352 | -2.07317 | 40796 ft | 535 kts | 55° |
| 2026-02-21 23:42 | 56.32863 | -1.84300 | 40801 ft | 537 kts | 56° |
| 2026-02-21 23:43 | 56.36627 | -1.72682 | 40802 ft | 536 kts | 56° |
| 2026-02-21 23:43 | 56.39744 | -1.63014 | 40788 ft | 536 kts | 56° |
| 2026-02-21 23:44 | 56.44099 | -1.49446 | 40790 ft | 536 kts | 56° |
| 2026-02-21 23:44 | 56.47203 | -1.39727 | 40787 ft | 536 kts | 56° |
| 2026-02-21 23:45 | 56.50923 | -1.28030 | 40789 ft | 536 kts | 56° |
| 2026-02-21 23:45 | 56.54627 | -1.16321 | 40781 ft | 536 kts | 56° |
| 2026-02-21 23:46 | 56.55723 | -1.12847 | 40777 ft | 535 kts | 56° |
| 2026-02-21 23:46 | 56.59416 | -1.01099 | 40795 ft | 535 kts | 56° |
| 2026-02-21 23:47 | 56.63016 | -0.89590 | 40780 ft | 533 kts | 56° |
| 2026-02-21 23:47 | 56.66662 | -0.77879 | 40777 ft | 532 kts | 56° |
| 2026-02-21 23:48 | 56.70288 | -0.66173 | 40779 ft | 531 kts | 56° |
| 2026-02-21 23:48 | 56.73898 | -0.54463 | 40775 ft | 530 kts | 56° |
| 2026-02-21 23:49 | 56.77500 | -0.42719 | 40776 ft | 530 kts | 57° |
| 2026-02-21 23:49 | 56.81093 | -0.30948 | 40776 ft | 531 kts | 57° |
| 2026-02-21 23:50 | 56.84680 | -0.19137 | 40804 ft | 531 kts | 57° |
| 2026-02-21 23:50 | 56.88254 | -0.07305 | 40778 ft | 531 kts | 57° |
| 2026-02-21 23:51 | 56.89387 | -0.03545 | 40775 ft | 531 kts | 57° |
| 2026-02-21 23:51 | 56.92905 | 0.08177 | 40772 ft | 535 kts | 57° |
| 2026-02-21 23:52 | 56.96520 | 0.20263 | 40783 ft | 548 kts | 57° |
| 2026-02-21 23:52 | 57.00198 | 0.32637 | 40779 ft | 556 kts | 57° |
| 2026-02-21 23:53 | 57.03897 | 0.45169 | 40773 ft | 557 kts | 58° |
| 2026-02-21 23:53 | 57.07580 | 0.57712 | 40767 ft | 557 kts | 58° |
| 2026-02-21 23:54 | 57.11227 | 0.70192 | 40820 ft | 557 kts | 58° |
| 2026-02-21 23:54 | 57.14888 | 0.82782 | 40774 ft | 557 kts | 58° |
| 2026-02-21 23:55 | 57.18528 | 0.95371 | 40773 ft | 555 kts | 58° |
| 2026-02-21 23:55 | 57.22103 | 1.07801 | 40774 ft | 554 kts | 58° |
| 2026-02-21 23:56 | 57.23237 | 1.11759 | 40774 ft | 554 kts | 58° |
| 2026-02-21 23:56 | 57.26832 | 1.24345 | 40783 ft | 554 kts | 58° |
| 2026-02-21 23:57 | 57.30389 | 1.36870 | 40776 ft | 553 kts | 58° |
| 2026-02-21 23:57 | 57.33955 | 1.49493 | 40790 ft | 553 kts | 58° |
| 2026-02-21 23:58 | 57.37506 | 1.62133 | 40817 ft | 552 kts | 58° |
| 2026-02-21 23:58 | 57.41040 | 1.74779 | 40789 ft | 552 kts | 58° |
| 2026-02-21 23:59 | 57.44557 | 1.87440 | 40795 ft | 551 kts | 58° |
| 2026-02-21 23:59 | 57.48036 | 2.00032 | 40798 ft | 551 kts | 58° |
| 2026-02-22 00:00 | 57.51480 | 2.12563 | 40801 ft | 550 kts | 58° |
| 2026-02-22 00:00 | 57.54959 | 2.25290 | 40807 ft | 550 kts | 59° |
| 2026-02-22 00:01 | 57.56107 | 2.29507 | 40806 ft | 550 kts | 59° |
| 2026-02-22 00:01 | 57.59536 | 2.42149 | 40828 ft | 550 kts | 59° |
| 2026-02-22 00:02 | 57.62978 | 2.54907 | 40845 ft | 551 kts | 59° |
| 2026-02-22 00:02 | 57.66415 | 2.67721 | 40824 ft | 551 kts | 59° |
| 2026-02-22 00:03 | 57.69836 | 2.80549 | 40824 ft | 551 kts | 59° |
| 2026-02-22 00:03 | 57.73253 | 2.93433 | 40837 ft | 551 kts | 59° |
| 2026-02-22 00:04 | 57.76593 | 3.06101 | 40847 ft | 551 kts | 59° |
| 2026-02-22 00:04 | 57.79975 | 3.19000 | 40845 ft | 551 kts | 59° |
| 2026-02-22 00:05 | 57.83340 | 3.31910 | 40843 ft | 551 kts | 59° |
| 2026-02-22 00:05 | 57.86694 | 3.44850 | 40850 ft | 551 kts | 59° |
| 2026-02-22 00:06 | 57.87700 | 3.48743 | 40850 ft | 551 kts | 59° |
| 2026-02-22 00:06 | 57.91013 | 3.61726 | 40845 ft | 552 kts | 62° |
| 2026-02-22 00:07 | 57.93934 | 3.75111 | 40861 ft | 552 kts | 64° |
| 2026-02-22 00:07 | 57.96695 | 3.88593 | 40851 ft | 551 kts | 65° |
| 2026-02-22 00:08 | 57.99416 | 4.01912 | 40857 ft | 550 kts | 64° |
| 2026-02-22 00:08 | 58.02162 | 4.15253 | 40859 ft | 549 kts | 64° |
| 2026-02-22 00:09 | 58.04931 | 4.28712 | 40871 ft | 549 kts | 64° |
| 2026-02-22 00:09 | 58.07684 | 4.42181 | 40870 ft | 549 kts | 64° |
| 2026-02-22 00:10 | 58.10418 | 4.55666 | 40872 ft | 549 kts | 65° |
| 2026-02-22 00:10 | 58.13134 | 4.69161 | 40900 ft | 549 kts | 65° |
| 2026-02-22 00:11 | 58.13926 | 4.73116 | 40881 ft | 549 kts | 65° |
| 2026-02-22 00:11 | 58.16608 | 4.86562 | 40877 ft | 548 kts | 65° |
| 2026-02-22 00:12 | 58.19284 | 5.00065 | 40889 ft | 547 kts | 65° |
| 2026-02-22 00:12 | 58.21922 | 5.13471 | 40878 ft | 546 kts | 65° |
| 2026-02-22 00:13 | 58.24563 | 5.26983 | 40880 ft | 545 kts | 65° |
| 2026-02-22 00:13 | 58.27182 | 5.40474 | 40882 ft | 544 kts | 65° |
| 2026-02-22 00:14 | 58.29786 | 5.53976 | 40894 ft | 544 kts | 65° |
| 2026-02-22 00:14 | 58.32373 | 5.67492 | 40892 ft | 544 kts | 65° |
| 2026-02-22 00:15 | 58.34931 | 5.80941 | 40933 ft | 544 kts | 66° |
| 2026-02-22 00:15 | 58.37494 | 5.94518 | 40896 ft | 544 kts | 66° |
| 2026-02-22 00:16 | 58.38335 | 5.98997 | 40899 ft | 544 kts | 66° |
| 2026-02-22 00:16 | 58.40847 | 6.12425 | 40896 ft | 544 kts | 66° |
| 2026-02-22 00:17 | 58.43376 | 6.26047 | 40921 ft | 544 kts | 66° |
| 2026-02-22 00:17 | 58.45893 | 6.39693 | 40921 ft | 544 kts | 66° |
| 2026-02-22 00:18 | 58.48390 | 6.53331 | 40930 ft | 544 kts | 66° |
| 2026-02-22 00:18 | 58.50876 | 6.67012 | 40924 ft | 544 kts | 66° |
| 2026-02-22 00:19 | 58.53347 | 6.80708 | 40949 ft | 544 kts | 67° |
| 2026-02-22 00:19 | 58.55787 | 6.94331 | 40957 ft | 544 kts | 67° |
| 2026-02-22 00:20 | 58.58212 | 7.07971 | 40948 ft | 544 kts | 67° |
| 2026-02-22 00:20 | 58.60621 | 7.21620 | 40958 ft | 544 kts | 67° |
| 2026-02-22 00:21 | 58.61415 | 7.26142 | 40961 ft | 544 kts | 67° |
| 2026-02-22 00:21 | 58.63824 | 7.39924 | 40961 ft | 544 kts | 67° |
| 2026-02-22 00:22 | 58.66201 | 7.53632 | 40958 ft | 544 kts | 68° |
| 2026-02-22 00:22 | 58.68579 | 7.67447 | 40970 ft | 544 kts | 68° |
| 2026-02-22 00:23 | 58.70942 | 7.81273 | 40963 ft | 544 kts | 68° |
| 2026-02-22 00:23 | 58.73291 | 7.95128 | 40961 ft | 544 kts | 68° |
| 2026-02-22 00:24 | 58.75602 | 8.08865 | 40962 ft | 544 kts | 68° |
| 2026-02-22 00:24 | 58.77906 | 8.22663 | 41005 ft | 545 kts | 68° |
| 2026-02-22 00:25 | 58.80212 | 8.36583 | 40971 ft | 544 kts | 68° |
| 2026-02-22 00:25 | 58.82499 | 8.50501 | 40957 ft | 544 kts | 68° |
| 2026-02-22 00:26 | 58.83281 | 8.55283 | 40951 ft | 543 kts | 68° |
| 2026-02-22 00:26 | 58.85548 | 8.69224 | 40954 ft | 543 kts | 68° |
| 2026-02-22 00:27 | 58.87796 | 8.83151 | 40950 ft | 543 kts | 68° |
| 2026-02-22 00:27 | 58.90013 | 8.97003 | 40952 ft | 542 kts | 68° |
| 2026-02-22 00:28 | 58.92204 | 9.10798 | 40942 ft | 541 kts | 68° |
| 2026-02-22 00:28 | 58.94398 | 9.24730 | 40938 ft | 541 kts | 69° |
| 2026-02-22 00:29 | 58.96579 | 9.38684 | 40937 ft | 540 kts | 69° |
| 2026-02-22 00:29 | 58.98732 | 9.52577 | 40926 ft | 541 kts | 69° |
| 2026-02-22 00:30 | 59.00881 | 9.66554 | 40941 ft | 541 kts | 69° |
| 2026-02-22 00:30 | 59.02656 | 9.78189 | 40927 ft | 541 kts | 69° |
| 2026-02-22 00:31 | 59.03726 | 9.85235 | 40931 ft | 541 kts | 69° |
| 2026-02-22 00:31 | 59.05850 | 9.99261 | 40929 ft | 541 kts | 69° |
| 2026-02-22 00:32 | 59.07926 | 10.13127 | 40915 ft | 541 kts | 70° |
| 2026-02-22 00:32 | 59.09661 | 10.24839 | 40914 ft | 541 kts | 70° |
| 2026-02-22 00:33 | 59.11733 | 10.38921 | 40894 ft | 542 kts | 70° |
| 2026-02-22 00:33 | 59.13793 | 10.53037 | 40864 ft | 542 kts | 70° |
| 2026-02-22 00:34 | 59.15841 | 10.67193 | 40842 ft | 542 kts | 70° |
| 2026-02-22 00:34 | 59.17876 | 10.81382 | 40839 ft | 544 kts | 70° |
| 2026-02-22 00:35 | 59.19897 | 10.95600 | 40837 ft | 545 kts | 70° |
| 2026-02-22 00:35 | 59.21892 | 11.09763 | 40862 ft | 546 kts | 70° |
| 2026-02-22 00:36 | 59.22561 | 11.14540 | 40862 ft | 546 kts | 70° |
| 2026-02-22 00:36 | 59.24540 | 11.28756 | 40920 ft | 546 kts | 70° |
| 2026-02-22 00:37 | 59.26520 | 11.43114 | 40902 ft | 546 kts | 71° |
| 2026-02-22 00:37 | 59.28482 | 11.57471 | 40917 ft | 546 kts | 71° |
| 2026-02-22 00:38 | 59.30428 | 11.71858 | 40909 ft | 547 kts | 71° |
| 2026-02-22 00:38 | 59.32352 | 11.86311 | 40905 ft | 547 kts | 72° |
| 2026-02-22 00:39 | 59.34055 | 12.00718 | 40947 ft | 549 kts | 73° |
| 2026-02-22 00:39 | 59.35676 | 12.15327 | 40903 ft | 549 kts | 73° |
| 2026-02-22 00:40 | 59.37294 | 12.29869 | 40889 ft | 548 kts | 73° |
| 2026-02-22 00:40 | 59.38934 | 12.44494 | 40889 ft | 548 kts | 73° |
| 2026-02-22 00:41 | 59.39501 | 12.49563 | 40890 ft | 548 kts | 73° |
| 2026-02-22 00:41 | 59.41125 | 12.64163 | 40885 ft | 548 kts | 73° |
| 2026-02-22 00:42 | 59.44308 | 12.93347 | 40879 ft | 547 kts | 74° |
| 2026-02-22 00:43 | 59.45862 | 13.07854 | 40864 ft | 548 kts | 73° |
| 2026-02-22 00:43 | 59.47406 | 13.22423 | 40882 ft | 547 kts | 74° |
| 2026-02-22 00:44 | 59.48943 | 13.37100 | 40930 ft | 547 kts | 74° |
| 2026-02-22 00:44 | 59.50463 | 13.51780 | 40885 ft | 547 kts | 74° |
| 2026-02-22 00:45 | 59.52707 | 13.73780 | 40863 ft | 546 kts | 74° |
| 2026-02-22 00:46 | 59.53446 | 13.81111 | 40874 ft | 545 kts | 74° |
| 2026-02-22 00:46 | 59.54679 | 13.93439 | 40854 ft | 545 kts | 74° |
| 2026-02-22 00:47 | 59.56110 | 14.07912 | 40840 ft | 545 kts | 74° |
| 2026-02-22 00:47 | 59.57535 | 14.22494 | 40837 ft | 545 kts | 75° |
| 2026-02-22 00:48 | 59.58953 | 14.37190 | 40846 ft | 545 kts | 75° |
| 2026-02-22 00:48 | 59.60358 | 14.51929 | 40859 ft | 545 kts | 75° |
| 2026-02-22 00:49 | 59.61744 | 14.66653 | 40844 ft | 546 kts | 75° |
| 2026-02-22 00:49 | 59.63114 | 14.81403 | 40880 ft | 546 kts | 75° |
| 2026-02-22 00:50 | 59.64463 | 14.96100 | 40847 ft | 546 kts | 75° |
| 2026-02-22 00:50 | 59.65786 | 15.10722 | 40842 ft | 546 kts | 75° |
| 2026-02-22 00:51 | 59.66450 | 15.18132 | 40836 ft | 546 kts | 76° |
| 2026-02-22 00:51 | 59.67549 | 15.30499 | 40844 ft | 546 kts | 76° |
| 2026-02-22 00:52 | 59.68848 | 15.45309 | 40836 ft | 546 kts | 76° |
| 2026-02-22 00:52 | 59.70124 | 15.60053 | 40837 ft | 545 kts | 76° |
| 2026-02-22 00:53 | 59.71388 | 15.74865 | 40833 ft | 545 kts | 76° |
| 2026-02-22 00:53 | 59.72637 | 15.89704 | 40834 ft | 545 kts | 76° |
| 2026-02-22 00:54 | 59.73851 | 16.04325 | 40826 ft | 545 kts | 77° |
| 2026-02-22 00:54 | 59.75067 | 16.19182 | 40817 ft | 545 kts | 77° |
| 2026-02-22 00:55 | 59.76266 | 16.34054 | 40807 ft | 546 kts | 77° |
| 2026-02-22 00:55 | 59.77449 | 16.48950 | 40795 ft | 546 kts | 77° |
| 2026-02-22 00:56 | 59.78033 | 16.56395 | 40792 ft | 546 kts | 77° |
| 2026-02-22 00:56 | 59.78986 | 16.68647 | 40815 ft | 546 kts | 77° |
| 2026-02-22 00:57 | 59.80125 | 16.83501 | 40779 ft | 547 kts | 77° |
| 2026-02-22 00:57 | 59.81255 | 16.98464 | 40771 ft | 548 kts | 78° |
| 2026-02-22 00:58 | 59.82360 | 17.13324 | 40755 ft | 549 kts | 78° |
| 2026-02-22 00:58 | 59.83459 | 17.28362 | 40751 ft | 549 kts | 78° |
| 2026-02-22 00:59 | 59.84541 | 17.43396 | 40755 ft | 549 kts | 78° |
| 2026-02-22 00:59 | 59.85604 | 17.58427 | 40748 ft | 549 kts | 78° |
| 2026-02-22 01:00 | 59.86644 | 17.73370 | 40753 ft | 549 kts | 78° |
| 2026-02-22 01:00 | 59.87672 | 17.88410 | 40735 ft | 547 kts | 79° |
| 2026-02-22 01:01 | 59.88179 | 17.95923 | 40731 ft | 547 kts | 79° |
| 2026-02-22 01:01 | 59.89004 | 18.08283 | 40731 ft | 546 kts | 79° |
| 2026-02-22 01:02 | 59.89989 | 18.23277 | 40727 ft | 545 kts | 79° |
| 2026-02-22 01:02 | 59.90949 | 18.38157 | 40723 ft | 544 kts | 79° |
| 2026-02-22 01:03 | 59.91895 | 18.53100 | 40724 ft | 543 kts | 79° |
| 2026-02-22 01:03 | 59.92824 | 18.68044 | 40727 ft | 543 kts | 80° |
| 2026-02-22 01:04 | 59.93738 | 18.83012 | 40722 ft | 543 kts | 80° |
| 2026-02-22 01:04 | 59.94634 | 18.97994 | 40723 ft | 543 kts | 80° |
| 2026-02-22 01:05 | 59.95505 | 19.12837 | 40749 ft | 544 kts | 80° |
| 2026-02-22 01:05 | 59.96370 | 19.27844 | 40711 ft | 544 kts | 81° |
| 2026-02-22 01:06 | 59.96796 | 19.35342 | 40703 ft | 543 kts | 81° |
| 2026-02-22 01:06 | 59.97803 | 19.47462 | 40697 ft | 539 kts | 73° |
| 2026-02-22 01:07 | 59.99586 | 19.61990 | 40698 ft | 537 kts | 72° |
| 2026-02-22 01:07 | 60.01405 | 19.76439 | 40666 ft | 537 kts | 72° |
| 2026-02-22 01:08 | 60.03172 | 19.90986 | 40664 ft | 537 kts | 73° |
| 2026-02-22 01:08 | 60.04877 | 20.05416 | 40666 ft | 538 kts | 73° |
| 2026-02-22 01:09 | 60.06575 | 20.19989 | 40670 ft | 538 kts | 73° |
| 2026-02-22 01:09 | 60.08266 | 20.34615 | 40673 ft | 538 kts | 73° |
| 2026-02-22 01:10 | 60.09930 | 20.49140 | 40664 ft | 538 kts | 73° |
| 2026-02-22 01:10 | 60.11590 | 20.63789 | 40663 ft | 538 kts | 74° |
| 2026-02-22 01:11 | 60.12413 | 20.71109 | 40655 ft | 538 kts | 74° |
| 2026-02-22 01:11 | 60.13752 | 20.83110 | 40652 ft | 538 kts | 74° |
| 2026-02-22 01:12 | 60.15372 | 20.97777 | 40641 ft | 538 kts | 74° |
| 2026-02-22 01:12 | 60.16963 | 21.12333 | 40644 ft | 538 kts | 74° |
| 2026-02-22 01:13 | 60.18553 | 21.27039 | 40645 ft | 538 kts | 75° |
| 2026-02-22 01:13 | 60.20119 | 21.41674 | 40646 ft | 538 kts | 75° |
| 2026-02-22 01:14 | 60.21673 | 21.56396 | 40632 ft | 538 kts | 75° |
| 2026-02-22 01:14 | 60.23207 | 21.71117 | 40614 ft | 537 kts | 75° |
| 2026-02-22 01:15 | 60.24726 | 21.85845 | 40611 ft | 537 kts | 75° |
| 2026-02-22 01:15 | 60.26211 | 22.00404 | 40596 ft | 537 kts | 76° |
| 2026-02-22 01:16 | 60.26705 | 22.05285 | 40598 ft | 536 kts | 76° |
| 2026-02-22 01:16 | 60.28204 | 22.20218 | 40602 ft | 536 kts | 76° |
| 2026-02-22 01:16 | 60.28936 | 22.27577 | 40746 ft | 538 kts | 76° |
| 2026-02-22 01:17 | 60.29667 | 22.34979 | 41224 ft | 534 kts | 76° |
| 2026-02-22 01:17 | 60.30377 | 22.42212 | 41746 ft | 530 kts | 76° |
| 2026-02-22 01:17 | 60.31088 | 22.49483 | 42221 ft | 527 kts | 76° |
| 2026-02-22 01:17 | 60.31802 | 22.56818 | 42622 ft | 527 kts | 76° |
| 2026-02-22 01:18 | 60.32500 | 22.64029 | 42559 ft | 531 kts | 77° |
| 2026-02-22 01:18 | 60.33896 | 22.78629 | 42571 ft | 527 kts | 77° |
| 2026-02-22 01:19 | 60.35266 | 22.93115 | 42567 ft | 523 kts | 77° |
| 2026-02-22 01:19 | 60.36376 | 23.04971 | 42567 ft | 523 kts | 77° |
| 2026-02-22 01:20 | 60.37727 | 23.19548 | 42573 ft | 532 kts | 77° |
| 2026-02-22 01:20 | 60.39083 | 23.34381 | 42562 ft | 538 kts | 77° |
| 2026-02-22 01:21 | 60.39757 | 23.41829 | 42549 ft | 538 kts | 77° |
| 2026-02-22 01:21 | 60.40799 | 23.53455 | 42542 ft | 539 kts | 78° |
| 2026-02-22 01:22 | 60.42123 | 23.68378 | 42571 ft | 538 kts | 78° |
| 2026-02-22 01:22 | 60.43313 | 23.83240 | 42545 ft | 538 kts | 83° |
| 2026-02-22 01:23 | 60.43447 | 23.98372 | 42537 ft | 538 kts | 94° |
| 2026-02-22 01:23 | 60.42751 | 24.13294 | 42542 ft | 537 kts | 95° |
| 2026-02-22 01:24 | 60.41984 | 24.28320 | 42516 ft | 536 kts | 95° |
| 2026-02-22 01:24 | 60.41249 | 24.43349 | 42543 ft | 535 kts | 95° |
| 2026-02-22 01:25 | 60.40535 | 24.58240 | 42555 ft | 534 kts | 95° |
| 2026-02-22 01:25 | 60.39807 | 24.73209 | 42546 ft | 534 kts | 95° |
| 2026-02-22 01:26 | 60.39435 | 24.80699 | 42551 ft | 534 kts | 95° |
| 2026-02-22 01:26 | 60.38821 | 24.92843 | 42530 ft | 534 kts | 96° |
| 2026-02-22 01:27 | 60.38062 | 25.07526 | 42532 ft | 534 kts | 96° |
| 2026-02-22 01:27 | 60.37273 | 25.22442 | 42518 ft | 534 kts | 96° |
| 2026-02-22 01:28 | 60.36466 | 25.37385 | 42558 ft | 534 kts | 96° |
| 2026-02-22 01:28 | 60.35644 | 25.52306 | 42555 ft | 534 kts | 96° |
| 2026-02-22 01:29 | 60.34804 | 25.67224 | 42567 ft | 534 kts | 97° |
| 2026-02-22 01:29 | 60.33955 | 25.82015 | 42568 ft | 533 kts | 97° |
| 2026-02-22 01:30 | 60.33086 | 25.96858 | 42567 ft | 532 kts | 97° |
| 2026-02-22 01:30 | 60.32211 | 26.11505 | 42542 ft | 530 kts | 97° |
| 2026-02-22 01:30 | 60.31766 | 26.18861 | 42211 ft | 527 kts | 97° |
| 2026-02-22 01:31 | 60.31485 | 26.23459 | 41848 ft | 528 kts | 97° |
| 2026-02-22 01:31 | 60.31031 | 26.30837 | 41205 ft | 531 kts | 97° |
| 2026-02-22 01:31 | 60.30578 | 26.38141 | 40555 ft | 532 kts | 98° |
| 2026-02-22 01:32 | 60.30114 | 26.45552 | 39882 ft | 533 kts | 98° |
| 2026-02-22 01:32 | 60.29645 | 26.52970 | 39201 ft | 533 kts | 98° |
| 2026-02-22 01:32 | 60.29172 | 26.60399 | 38489 ft | 533 kts | 98° |
| 2026-02-22 01:32 | 60.28694 | 26.67832 | 37635 ft | 533 kts | 98° |
| 2026-02-22 01:33 | 60.28214 | 26.75237 | 36727 ft | 532 kts | 99° |
| 2026-02-22 01:33 | 60.27731 | 26.82616 | 35791 ft | 531 kts | 99° |
| 2026-02-22 01:33 | 60.27244 | 26.89994 | 34825 ft | 529 kts | 100° |
| 2026-02-22 01:33 | 60.26756 | 26.97335 | 33822 ft | 528 kts | 100° |
| 2026-02-22 01:34 | 60.26274 | 27.04497 | 32722 ft | 525 kts | 101° |
| 2026-02-22 01:34 | 60.25791 | 27.11642 | 31892 ft | 517 kts | 101° |
| 2026-02-22 01:34 | 60.25308 | 27.18734 | 31218 ft | 506 kts | 101° |
| 2026-02-22 01:34 | 60.24829 | 27.25694 | 30786 ft | 496 kts | 101° |
| 2026-02-22 01:35 | 60.24355 | 27.32530 | 30093 ft | 492 kts | 102° |
| 2026-02-22 01:35 | 60.23878 | 27.39340 | 28973 ft | 488 kts | 102° |
| 2026-02-22 01:35 | 60.23408 | 27.46042 | 28028 ft | 479 kts | 101° |
| 2026-02-22 01:35 | 60.23063 | 27.52653 | 27185 ft | 470 kts | 98° |
| 2026-02-22 01:36 | 60.22905 | 27.56779 | 26677 ft | 465 kts | 98° |
| 2026-02-22 01:36 | 60.22681 | 27.63235 | 25857 ft | 457 kts | 97° |
| 2026-02-22 01:36 | 60.22468 | 27.69577 | 25065 ft | 451 kts | 97° |
| 2026-02-22 01:37 | 60.22255 | 27.75752 | 24258 ft | 446 kts | 97° |
| 2026-02-22 01:37 | 60.22032 | 27.81943 | 23460 ft | 441 kts | 97° |
| 2026-02-22 01:37 | 60.21802 | 27.88070 | 22611 ft | 436 kts | 97° |
| 2026-02-22 01:37 | 60.21570 | 27.94115 | 21811 ft | 430 kts | 97° |
| 2026-02-22 01:38 | 60.21338 | 28.00075 | 21070 ft | 424 kts | 98° |
| 2026-02-22 01:38 | 60.21109 | 28.05852 | 20336 ft | 419 kts | 98° |
| 2026-02-22 01:38 | 60.20875 | 28.11666 | 19594 ft | 415 kts | 98° |
| 2026-02-22 01:38 | 60.20641 | 28.17434 | 18866 ft | 411 kts | 98° |
| 2026-02-22 01:39 | 60.20408 | 28.23130 | 18146 ft | 407 kts | 98° |
| 2026-02-22 01:39 | 60.20177 | 28.28723 | 17357 ft | 404 kts | 98° |
| 2026-02-22 01:39 | 60.19943 | 28.34322 | 16597 ft | 400 kts | 98° |
| 2026-02-22 01:39 | 60.19710 | 28.39849 | 15897 ft | 394 kts | 98° |
| 2026-02-22 01:40 | 60.19478 | 28.45315 | 15186 ft | 389 kts | 98° |
| 2026-02-22 01:40 | 60.19247 | 28.50707 | 14442 ft | 385 kts | 98° |
| 2026-02-22 01:40 | 60.19016 | 28.56050 | 13949 ft | 382 kts | 98° |
| 2026-02-22 01:40 | 60.18779 | 28.61417 | 13761 ft | 389 kts | 98° |
| 2026-02-22 01:41 | 60.18611 | 28.64865 | 13670 ft | 390 kts | 100° |
| 2026-02-22 01:41 | 60.18110 | 28.70220 | 13106 ft | 391 kts | 109° |
| 2026-02-22 01:41 | 60.17225 | 28.75342 | 12386 ft | 384 kts | 116° |
| 2026-02-22 01:42 | 60.16077 | 28.80089 | 11701 ft | 372 kts | 123° |
| 2026-02-22 01:42 | 60.14836 | 28.84557 | 11018 ft | 364 kts | 123° |
| 2026-02-22 01:42 | 60.13626 | 28.88902 | 10362 ft | 358 kts | 123° |
| 2026-02-22 01:42 | 60.12438 | 28.93177 | 10169 ft | 340 kts | 123° |
| 2026-02-22 01:43 | 60.11317 | 28.97221 | 10022 ft | 323 kts | 123° |
| 2026-02-22 01:43 | 60.09260 | 29.04643 | 9758 ft | 293 kts | 124° |
| 2026-02-22 01:43 | 60.08293 | 29.08125 | 9649 ft | 280 kts | 124° |
| 2026-02-22 01:44 | 60.07354 | 29.11497 | 9315 ft | 275 kts | 124° |
| 2026-02-22 01:44 | 60.06431 | 29.14802 | 9017 ft | 269 kts | 124° |
| 2026-02-22 01:44 | 60.05536 | 29.18003 | 8708 ft | 264 kts | 124° |
| 2026-02-22 01:44 | 60.04646 | 29.21185 | 8426 ft | 261 kts | 124° |
| 2026-02-22 01:45 | 60.03753 | 29.24372 | 8118 ft | 265 kts | 124° |
| 2026-02-22 01:45 | 60.02838 | 29.27627 | 7813 ft | 270 kts | 124° |
| 2026-02-22 01:45 | 60.01916 | 29.30911 | 7492 ft | 270 kts | 123° |
| 2026-02-22 01:45 | 60.01005 | 29.34159 | 7169 ft | 266 kts | 123° |
| 2026-02-22 01:46 | 60.00461 | 29.36101 | 7000 ft | 263 kts | 123° |
| 2026-02-22 01:46 | 59.99571 | 29.39268 | 6696 ft | 259 kts | 123° |
| 2026-02-22 01:46 | 59.98696 | 29.42381 | 6403 ft | 255 kts | 123° |
| 2026-02-22 01:47 | 59.97831 | 29.45449 | 6096 ft | 251 kts | 123° |
| 2026-02-22 01:47 | 59.96983 | 29.48450 | 5803 ft | 253 kts | 123° |
| 2026-02-22 01:47 | 59.96105 | 29.51552 | 5513 ft | 258 kts | 123° |
| 2026-02-22 01:47 | 59.95217 | 29.54687 | 5213 ft | 259 kts | 123° |
| 2026-02-22 01:48 | 59.94342 | 29.57782 | 4897 ft | 252 kts | 123° |
| 2026-02-22 01:48 | 59.93491 | 29.60789 | 4600 ft | 246 kts | 124° |
| 2026-02-22 01:48 | 59.92659 | 29.63717 | 4313 ft | 239 kts | 124° |
| 2026-02-22 01:48 | 59.91853 | 29.66551 | 4017 ft | 232 kts | 124° |
| 2026-02-22 01:49 | 59.91066 | 29.69315 | 3779 ft | 225 kts | 124° |
| 2026-02-22 01:49 | 59.90308 | 29.71977 | 3631 ft | 214 kts | 124° |
| 2026-02-22 01:49 | 59.89603 | 29.74456 | 3592 ft | 198 kts | 124° |
| 2026-02-22 01:49 | 59.88932 | 29.76803 | 3352 ft | 193 kts | 125° |
| 2026-02-22 01:50 | 59.88277 | 29.79090 | 3242 ft | 189 kts | 125° |
| 2026-02-22 01:50 | 59.87622 | 29.81371 | 3158 ft | 189 kts | 125° |
| 2026-02-22 01:50 | 59.86985 | 29.83593 | 3107 ft | 186 kts | 125° |
| 2026-02-22 01:50 | 59.86340 | 29.85835 | 3008 ft | 187 kts | 125° |
| 2026-02-22 01:51 | 59.85691 | 29.88091 | 2904 ft | 187 kts | 125° |
| 2026-02-22 01:51 | 59.85041 | 29.90347 | 2694 ft | 188 kts | 125° |
| 2026-02-22 01:51 | 59.84395 | 29.92591 | 2557 ft | 183 kts | 125° |
| 2026-02-22 01:51 | 59.83893 | 29.94924 | 2491 ft | 187 kts | 112° |
| 2026-02-22 01:52 | 59.83556 | 29.97461 | 2469 ft | 188 kts | 109° |
| 2026-02-22 01:52 | 59.83237 | 29.99856 | 2462 ft | 170 kts | 111° |
| 2026-02-22 01:52 | 59.82930 | 30.01981 | 2309 ft | 162 kts | 112° |
| 2026-02-22 01:52 | 59.82617 | 30.04105 | 2071 ft | 157 kts | 112° |
| 2026-02-22 01:53 | 59.82315 | 30.06153 | 1864 ft | 151 kts | 114° |
| 2026-02-22 01:53 | 59.82027 | 30.08108 | 1633 ft | 144 kts | 115° |
| 2026-02-22 01:53 | 59.81741 | 30.10019 | 1446 ft | 149 kts | 115° |
| 2026-02-22 01:53 | 59.81454 | 30.11953 | 1227 ft | 142 kts | 112° |
| 2026-02-22 01:54 | 59.81176 | 30.13822 | 977 ft | 139 kts | 111° |
| 2026-02-22 01:54 | 59.80907 | 30.15659 | 787 ft | 138 kts | 109° |
| 2026-02-22 01:54 | 59.80636 | 30.17480 | 576 ft | 138 kts | 108° |
| 2026-02-22 01:54 | 59.80366 | 30.19294 | 387 ft | 137 kts | 108° |
| 2026-02-22 01:55 | 59.80102 | 30.21093 | 219 ft | 136 kts | 107° |
| 2026-02-22 01:55 | 59.79839 | 30.22879 | 99 ft | 129 kts | 108° |
| 2026-02-22 01:55 | 59.79609 | 30.24397 | 93 ft | 95 kts | 107° |
| 2026-02-22 01:55 | 59.79494 | 30.25225 | 91 ft | 33 kts | 99° |
| 2026-02-22 01:56 | 59.79508 | 30.25685 | 92 ft | 33 kts | 77° |
| 2026-02-22 01:56 | 59.79545 | 30.25933 | 92 ft | 17 kts | 58° |
| 2026-02-22 01:56 | 59.79657 | 30.26048 | 90 ft | 20 kts | 24° |
| 2026-02-22 01:56 | 59.79795 | 30.26141 | 90 ft | 22 kts | 17° |
| 2026-02-22 01:57 | 59.79950 | 30.26234 | 91 ft | 24 kts | 17° |
| 2026-02-22 01:57 | 59.80120 | 30.26333 | 91 ft | 26 kts | 16° |
| 2026-02-22 01:57 | 59.80301 | 30.26436 | 91 ft | 28 kts | 9° |
| 2026-02-22 01:57 | 59.80429 | 30.26567 | 92 ft | 20 kts | 84° |
| 2026-02-22 01:58 | 59.80399 | 30.26842 | 92 ft | 21 kts | 107° |
| 2026-02-22 01:58 | 59.80356 | 30.27129 | 88 ft | 22 kts | 107° |
| 2026-02-22 01:58 | 59.80311 | 30.27427 | 90 ft | 23 kts | 107° |
| 2026-02-22 01:58 | 59.80264 | 30.27747 | 87 ft | 25 kts | 106° |
| 2026-02-22 01:59 | 59.80214 | 30.28078 | 89 ft | 21 kts | 107° |
| 2026-02-22 01:59 | 59.80186 | 30.28260 | 89 ft | 14 kts | 107° |
| 2026-02-22 01:59 | 59.80154 | 30.28469 | 87 ft | 17 kts | 105° |
| 2026-02-22 01:59 | 59.80119 | 30.28711 | 87 ft | 19 kts | 107° |
| 2026-02-22 02:00 | 59.80079 | 30.28979 | 84 ft | 21 kts | 106° |
| 2026-02-22 02:00 | 59.80049 | 30.29144 | 86 ft | 13 kts | 129° |
| 2026-02-22 02:00 | 59.79991 | 30.29147 | 87 ft | 5 kts | 197° |
| 2026-02-22 02:00 | 59.79960 | 30.29129 | 85 ft | 2 kts | 197° |
| 2026-02-22 02:01 | 59.79959 | 30.29128 | 85 ft | 0 kts | 197° |